Time;durP1;ratioP1;P1;durP2;ratioP2;P2;SDS_P1;SDS_P2;PMS_P1;PMS_P2;Temp;Humidity;BMP_temperature;BMP_pressure;BME280_temperature;BME280_humidity;BME280_pressure;Samples;Min_cycle;Max_cycle;Signal;HPM_P1;HPM_P2
2021/12/07 00:00:12;;;;;;;8.05;5.53;;;;;;;17.88;29.32;99454.41;5054147;28;20024;-72
2021/12/07 00:02:37;;;;;;;6.40;5.03;;;;;;;17.88;29.51;99454.41;5054018;28;20370;-68
2021/12/07 00:05:04;;;;;;;7.45;5.32;;;;;;;17.89;29.18;99448.03;5054177;28;20032;-65
2021/12/07 00:07:30;;;;;;;6.40;5.20;;;;;;;17.91;29.11;99453.25;5054374;28;20087;-73
2021/12/07 00:09:56;;;;;;;7.63;5.75;;;;;;;17.93;29.30;99448.56;5054751;28;20032;-65
2021/12/07 00:12:22;;;;;;;8.65;5.70;;;;;;;17.94;29.02;99443.03;5053829;28;20611;-75
2021/12/07 00:14:48;;;;;;;7.47;5.53;;;;;;;17.96;29.05;99442.84;5051970;28;20043;-66
2021/12/07 00:17:13;;;;;;;9.45;5.50;;;;;;;17.98;28.85;99435.50;5054017;28;20036;-66
2021/12/07 00:19:39;;;;;;;6.22;4.88;;;;;;;18.00;29.21;99438.84;5047374;28;20373;-71
2021/12/07 00:22:08;;;;;;;5.88;5.28;;;;;;;18.03;29.33;99430.50;5034056;28;20033;-70
2021/12/07 00:24:34;;;;;;;6.45;5.03;;;;;;;18.07;29.22;99429.16;5034046;28;20025;-71
2021/12/07 00:26:59;;;;;;;7.80;5.13;;;;;;;18.11;29.17;99416.25;5042390;28;20094;-72
2021/12/07 00:29:25;;;;;;;6.78;5.70;;;;;;;18.14;28.84;99414.03;5040162;28;20070;-73
2021/12/07 00:32:08;;;;;;;6.75;5.10;;;;;;;18.17;29.01;99415.53;5038298;28;20120;-74
2021/12/07 00:37:00;;;;;;;6.30;5.45;;;;;;;18.21;28.90;99400.78;5051580;28;20032;-74
2021/12/07 00:39:27;;;;;;;8.20;6.25;;;;;;;18.22;28.69;99393.63;5052070;28;20122;-73
2021/12/07 00:41:55;;;;;;;7.28;5.70;;;;;;;18.22;28.81;99396.28;5051777;28;20031;-73
2021/12/07 00:44:23;;;;;;;7.70;5.25;;;;;;;18.23;28.69;99395.28;5033597;28;20121;-74
2021/12/07 00:46:51;;;;;;;6.82;4.93;;;;;;;18.24;28.80;99396.91;5043556;28;20059;-72
2021/12/07 00:49:17;;;;;;;6.32;4.93;;;;;;;18.24;28.81;99387.06;5050503;28;20036;-73
2021/12/07 00:51:43;;;;;;;8.77;6.07;;;;;;;18.25;28.62;99387.88;5051801;28;20048;-73
2021/12/07 00:54:10;;;;;;;6.13;5.20;;;;;;;18.23;28.87;99385.38;5051063;28;20028;-73
2021/12/07 00:56:37;;;;;;;7.15;5.10;;;;;;;18.26;29.00;99376.16;5044165;28;20053;-73
2021/12/07 00:59:03;;;;;;;6.65;4.63;;;;;;;18.26;28.94;99377.00;5050452;28;20040;-74
2021/12/07 01:01:29;;;;;;;6.93;5.40;;;;;;;18.26;28.70;99373.50;5053415;28;20123;-74
2021/12/07 01:03:55;;;;;;;6.30;5.32;;;;;;;18.26;28.44;99363.63;5053497;28;20202;-74
2021/12/07 01:06:31;;;;;;;9.15;5.07;;;;;;;18.27;28.61;99362.63;5050712;28;20067;-71
2021/12/07 01:25:39;;;;;;;6.60;4.82;;;;;;;18.28;28.86;99356.25;5053244;28;20503;-72
2021/12/07 01:28:20;;;;;;;7.03;5.00;;;;;;;18.30;28.74;99350.72;5051333;28;20037;-72
2021/12/07 01:30:56;;;;;;;6.43;4.82;;;;;;;18.31;28.84;99341.66;5052784;28;20143;-72
2021/12/07 01:50:43;;;;;;;6.93;5.20;;;;;;;18.33;28.96;99309.34;5051963;28;20128;-72
2021/12/07 02:00:20;;;;;;;6.53;5.38;;;;;;;18.35;28.76;99304.63;5051978;28;20444;-73
2021/12/07 02:02:46;;;;;;;6.32;4.18;;;;;;;18.37;28.77;99303.47;5052228;28;20033;-74
2021/12/07 02:05:12;;;;;;;6.35;4.35;;;;;;;18.38;28.66;99301.63;5052685;28;20413;-73
2021/12/07 02:07:38;;;;;;;5.70;4.15;;;;;;;18.40;28.80;99299.59;5051752;28;20043;-73
2021/12/07 02:10:10;;;;;;;6.00;4.65;;;;;;;18.41;28.66;99287.88;5050064;28;20033;-73
2021/12/07 02:12:43;;;;;;;6.15;4.65;;;;;;;18.41;28.48;99290.56;5052332;28;20062;-73
2021/12/07 02:15:15;;;;;;;6.90;4.90;;;;;;;18.42;28.49;99290.34;5051921;28;20033;-73
2021/12/07 02:17:41;;;;;;;6.18;3.80;;;;;;;18.46;28.57;99285.47;5050883;28;20040;-73
2021/12/07 02:20:09;;;;;;;7.25;4.32;;;;;;;18.44;28.65;99280.31;5045368;28;20094;-74
2021/12/07 02:22:35;;;;;;;6.57;4.53;;;;;;;18.47;28.70;99280.97;5032178;28;20045;-73
2021/12/07 02:25:03;;;;;;;6.22;4.10;;;;;;;18.47;28.70;99272.94;5032366;28;20060;-74
2021/12/07 02:27:28;;;;;;;5.57;4.35;;;;;;;18.48;28.56;99279.94;5032982;28;20551;-72
2021/12/07 02:29:54;;;;;;;4.90;3.88;;;;;;;18.48;28.96;99267.38;5050088;28;20044;-72
2021/12/07 02:32:19;;;;;;;6.97;4.70;;;;;;;18.49;28.69;99269.03;5052153;28;20059;-75
2021/12/07 02:34:53;;;;;;;5.53;4.28;;;;;;;18.50;28.66;99268.03;5051989;28;20044;-72
2021/12/07 02:37:31;;;;;;;5.25;4.38;;;;;;;18.49;28.91;99258.34;5052012;28;20120;-73
2021/12/07 02:39:58;;;;;;;5.13;4.10;;;;;;;18.50;28.91;99262.69;5051427;28;20061;-73
2021/12/07 02:42:26;;;;;;;5.45;4.25;;;;;;;18.50;28.92;99256.50;5052079;28;20044;-74
2021/12/07 02:44:52;;;;;;;5.75;4.30;;;;;;;18.49;28.66;99252.97;5050086;28;20037;-73
2021/12/07 02:47:18;;;;;;;5.05;3.97;;;;;;;18.50;28.88;99249.28;5050962;28;20045;-72
2021/12/07 02:49:43;;;;;;;4.60;3.70;;;;;;;18.49;28.76;99254.84;5052040;28;20040;-74
2021/12/07 02:52:10;;;;;;;5.28;4.47;;;;;;;18.50;28.77;99246.59;5051101;28;20104;-72
2021/12/07 02:54:43;;;;;;;5.90;4.13;;;;;;;18.53;28.91;99253.47;5032048;28;20057;-74
2021/12/07 02:57:09;;;;;;;5.45;3.67;;;;;;;18.52;29.05;99249.13;5032127;28;20038;-72
2021/12/07 02:59:40;;;;;;;5.55;4.53;;;;;;;18.53;28.77;99242.75;5047086;28;20052;-71
2021/12/07 03:02:08;;;;;;;;;;;;;;;18.49;29.43;99241.44;5051315;28;20033;-71
2021/12/07 03:04:40;;;;;;;4.97;3.75;;;;;;;18.52;29.21;99238.41;5051478;28;19913;-72
2021/12/07 03:28:16;;;;;;;5.03;3.83;;;;;;;18.55;28.90;99177.25;5052372;28;20029;-74
2021/12/07 03:30:42;;;;;;;6.13;3.58;;;;;;;18.58;28.88;99182.25;5054937;28;20063;-72
2021/12/07 03:33:08;;;;;;;5.97;3.72;;;;;;;18.58;28.65;99170.69;5046550;28;20416;-72
2021/12/07 03:35:35;;;;;;;6.82;4.68;;;;;;;18.59;28.61;99167.00;5055326;28;20039;-71
2021/12/07 03:38:01;;;;;;;5.20;4.03;;;;;;;18.60;28.73;99169.47;5052757;28;20133;-73
2021/12/07 03:40:27;;;;;;;4.95;3.35;;;;;;;18.60;28.73;99156.06;5054336;28;20127;-72
2021/12/07 03:42:53;;;;;;;6.15;4.10;;;;;;;18.61;28.73;99162.28;5053905;28;20044;-75
2021/12/07 03:45:18;;;;;;;8.00;4.03;;;;;;;18.61;28.74;99152.38;5055337;28;20032;-74
2021/12/07 03:47:44;;;;;;;5.20;3.60;;;;;;;18.60;28.88;99144.53;5054928;28;20093;-74
2021/12/07 03:50:12;;;;;;;5.05;3.92;;;;;;;18.59;28.78;99151.75;5055138;28;20043;-72
2021/12/07 03:52:38;;;;;;;4.63;3.35;;;;;;;18.62;29.01;99147.88;5053330;28;20045;-73
2021/12/07 03:55:05;;;;;;;4.88;3.63;;;;;;;18.63;28.79;99144.19;5054775;28;20424;-75
2021/12/07 03:57:31;;;;;;;5.05;3.95;;;;;;;18.61;28.68;99146.22;5052855;28;20450;-72
2021/12/07 03:59:57;;;;;;;3.65;2.97;;;;;;;18.61;28.73;99144.34;5054597;28;20032;-74
2021/12/07 04:02:23;;;;;;;4.85;3.67;;;;;;;18.60;28.83;99139.19;5054344;28;20074;-74
2021/12/07 04:04:57;;;;;;;4.80;3.65;;;;;;;18.62;28.80;99129.13;5054956;28;20033;-75
2021/12/07 04:07:23;;;;;;;4.60;3.45;;;;;;;18.61;28.93;99124.78;5054617;28;20065;-72
2021/12/07 04:09:48;;;;;;;4.18;3.08;;;;;;;18.62;28.99;99121.09;5054490;28;20106;-74
2021/12/07 04:12:14;;;;;;;5.93;3.72;;;;;;;18.60;28.88;99117.75;5054391;28;20041;-72
2021/12/07 04:14:39;;;;;;;5.28;3.88;;;;;;;18.59;28.60;99106.22;5052656;28;20037;-72
2021/12/07 04:17:05;;;;;;;4.45;3.60;;;;;;;18.59;28.72;99111.56;5054604;28;20428;-76
2021/12/07 04:19:30;;;;;;;4.88;3.38;;;;;;;18.58;28.79;99104.53;5054614;28;20488;-73
2021/12/07 04:21:56;;;;;;;4.18;3.35;;;;;;;18.60;28.65;99096.31;5053866;28;20474;-72
2021/12/07 04:24:27;;;;;;;5.03;3.70;;;;;;;18.61;28.85;99092.63;5054249;28;20090;-74
2021/12/07 04:26:54;;;;;;;4.35;3.50;;;;;;;18.59;29.06;99092.81;5053780;28;20493;-74
2021/12/07 04:29:20;;;;;;;4.25;3.03;;;;;;;18.60;29.01;99094.44;5051165;28;20033;-73
2021/12/07 04:31:46;;;;;;;4.88;3.70;;;;;;;18.59;28.95;99084.78;5054057;28;20060;-77
2021/12/07 04:34:11;;;;;;;4.20;3.70;;;;;;;18.59;28.45;99084.78;5053693;28;20451;-73
2021/12/07 04:36:37;;;;;;;5.43;3.40;;;;;;;18.60;28.76;99078.38;5054369;28;20036;-73
2021/12/07 04:39:03;;;;;;;4.95;3.88;;;;;;;18.59;29.02;99065.19;5053782;28;20039;-70
2021/12/07 04:41:33;;;;;;;5.43;4.43;;;;;;;18.59;28.76;99067.84;5053279;28;20423;-72
2021/12/07 04:44:00;;;;;;;5.13;3.20;;;;;;;18.60;29.06;99062.31;5051616;28;20025;-73
2021/12/07 04:46:42;;;;;;;4.55;3.92;;;;;;;18.59;28.69;99063.34;5054355;28;20154;-70
2021/12/07 04:59:49;;;;;;;5.85;4.25;;;;;;;18.60;29.05;99035.50;5051596;28;20400;-73
2021/12/07 05:02:17;;;;;;;5.00;3.55;;;;;;;18.61;28.91;99031.81;5053681;28;20032;-72
2021/12/07 05:04:42;;;;;;;7.03;4.50;;;;;;;18.62;28.77;99032.66;5053453;28;20044;-70
2021/12/07 05:07:14;;;;;;;4.55;3.72;;;;;;;18.64;28.81;99024.44;5052976;28;20052;-72
2021/12/07 05:14:40;;;;;;;4.85;3.63;;;;;;;18.62;29.01;99027.31;5052253;28;19912;-72
2021/12/07 05:25:32;;;;;;;4.82;3.67;;;;;;;18.64;28.78;99024.44;5052952;28;20043;-72
2021/12/07 05:38:49;;;;;;;5.43;4.10;;;;;;;18.66;29.26;99017.03;5032988;28;20084;-72
2021/12/07 05:41:15;;;;;;;6.95;3.50;;;;;;;18.68;29.02;99012.31;5032936;28;20408;-71
2021/12/07 05:43:40;;;;;;;4.57;3.35;;;;;;;18.68;29.03;99009.66;5042227;28;20060;-70
2021/12/07 05:46:06;;;;;;;4.30;3.45;;;;;;;18.69;28.99;99011.31;5053314;28;20045;-72
2021/12/07 05:48:32;;;;;;;5.72;4.00;;;;;;;18.70;28.71;98999.56;5051859;28;20048;-73
2021/12/07 05:50:58;;;;;;;4.45;2.92;;;;;;;18.72;28.90;98987.63;5050004;28;20499;-71
2021/12/07 05:53:24;;;;;;;4.50;3.30;;;;;;;18.72;28.78;98982.28;5052270;28;20024;-72
2021/12/07 05:55:49;;;;;;;6.45;2.97;;;;;;;18.73;29.04;98991.16;5052664;28;20056;-73
2021/12/07 05:58:16;;;;;;;4.35;2.90;;;;;;;18.74;29.09;98992.84;5051912;28;20079;-73
2021/12/07 06:00:44;;;;;;;3.72;2.50;;;;;;;18.74;28.94;98984.78;5052435;28;20041;-70
2021/12/07 06:03:10;;;;;;;4.45;3.50;;;;;;;18.76;28.86;98988.09;5052575;28;20404;-72
2021/12/07 06:05:38;;;;;;;5.00;3.15;;;;;;;18.77;28.80;98992.44;5052817;28;20032;-72
2021/12/07 06:08:05;;;;;;;4.93;3.25;;;;;;;18.79;29.02;98985.03;5050581;28;20491;-71
2021/12/07 06:10:31;;;;;;;4.60;2.95;;;;;;;18.80;28.84;98983.22;5052020;28;20102;-73
2021/12/07 06:12:57;;;;;;;5.90;3.08;;;;;;;18.78;28.79;98988.75;5051913;28;20033;-72
2021/12/07 06:15:24;;;;;;;4.90;3.35;;;;;;;18.79;28.78;98990.41;5043551;28;20079;-72
2021/12/07 06:17:51;;;;;;;6.10;3.03;;;;;;;18.83;29.00;98988.16;5033682;28;20076;-73
2021/12/07 06:20:18;;;;;;;5.25;3.17;;;;;;;18.82;29.06;98981.16;5052012;28;20033;-71
2021/12/07 06:22:44;;;;;;;5.30;3.50;;;;;;;18.82;28.91;98990.03;5052420;28;20033;-71
2021/12/07 06:25:10;;;;;;;4.20;2.75;;;;;;;18.83;29.18;98986.34;5052973;28;20059;-72
2021/12/07 06:27:37;;;;;;;4.53;3.58;;;;;;;18.85;28.97;98988.81;5051938;28;20083;-72
2021/12/07 06:30:04;;;;;;;4.07;3.45;;;;;;;18.83;28.90;98986.34;5051261;28;20041;-72
2021/12/07 06:32:29;;;;;;;3.85;2.90;;;;;;;18.85;28.89;98995.03;5052565;28;20456;-72
2021/12/07 06:34:55;;;;;;;4.57;3.25;;;;;;;18.86;28.90;98987.78;5048921;28;20067;-73
2021/12/07 06:37:20;;;;;;;4.78;3.50;;;;;;;18.87;28.84;98981.41;5052192;28;20079;-73
2021/12/07 06:39:46;;;;;;;6.65;3.72;;;;;;;18.86;28.90;98985.97;5052185;28;20040;-73
2021/12/07 06:42:12;;;;;;;5.00;3.20;;;;;;;18.87;28.77;98978.75;5052448;28;20029;-72
2021/12/07 06:44:38;;;;;;;3.80;2.72;;;;;;;18.87;28.82;98976.91;5051884;28;20537;-73
2021/12/07 06:47:04;;;;;;;4.80;3.20;;;;;;;18.88;28.91;98973.22;5051649;28;20068;-71
2021/12/07 06:49:30;;;;;;;6.82;3.55;;;;;;;18.89;28.81;98966.81;5049947;28;20025;-71
2021/12/07 06:51:57;;;;;;;4.75;2.55;;;;;;;18.88;28.85;98967.84;5052206;28;20047;-69
2021/12/07 06:54:23;;;;;;;3.97;2.78;;;;;;;18.88;29.15;98958.97;5045284;28;20091;-70
2021/12/07 06:56:48;;;;;;;3.65;2.80;;;;;;;18.89;29.03;98953.44;5032697;28;20037;-69
2021/12/07 06:59:14;;;;;;;4.72;3.47;;;;;;;18.92;28.94;98961.06;5051763;28;20035;-70
2021/12/07 07:01:40;;;;;;;4.70;3.20;;;;;;;18.91;28.75;98954.03;5051990;28;20115;-70
2021/12/07 07:04:07;;;;;;;5.70;2.65;;;;;;;18.90;29.04;98955.06;5054484;28;20060;-71
2021/12/07 07:06:34;;;;;;;5.38;3.40;;;;;;;18.93;29.12;98951.19;5054422;28;20044;-68
2021/12/07 07:08:59;;;;;;;4.00;3.05;;;;;;;18.92;29.07;98953.03;5055692;28;20029;-71
2021/12/07 07:11:25;;;;;;;4.30;2.67;;;;;;;18.92;28.86;98958.38;5056229;28;20035;-69
2021/12/07 07:13:51;;;;;;;3.80;3.00;;;;;;;18.94;29.15;98957.38;5055426;28;20119;-71
2021/12/07 07:16:17;;;;;;;3.67;2.60;;;;;;;18.94;29.16;98954.69;5055375;28;20029;-71
2021/12/07 07:18:42;;;;;;;4.32;2.53;;;;;;;18.96;29.25;98958.03;5055085;28;20592;-71
2021/12/07 07:21:09;;;;;;;5.10;2.35;;;;;;;18.95;29.16;98959.06;5056039;28;20041;-71
2021/12/07 07:23:34;;;;;;;3.38;2.40;;;;;;;18.96;29.37;98952.69;5049164;28;20041;-71
2021/12/07 07:26:01;;;;;;;3.97;2.25;;;;;;;18.98;29.15;98953.31;5055674;28;20051;-71
2021/12/07 07:28:29;;;;;;;2.85;2.03;;;;;;;19.00;29.18;98954.78;5055016;28;20503;-72
2021/12/07 07:30:55;;;;;;;4.63;2.17;;;;;;;19.02;29.03;98955.44;5055177;28;20499;-72
2021/12/07 07:33:21;;;;;;;3.92;2.00;;;;;;;19.04;29.10;98950.72;5054992;28;20036;-71
2021/12/07 07:35:47;;;;;;;3.03;1.80;;;;;;;19.06;29.03;98934.41;5055194;28;20045;-72
2021/12/07 07:38:14;;;;;;;4.13;2.20;;;;;;;19.07;29.18;98954.84;5055432;28;20101;-73
2021/12/07 07:40:42;;;;;;;2.40;1.90;;;;;;;19.05;29.41;98938.13;5052615;28;20037;-73
2021/12/07 07:43:08;;;;;;;3.55;2.05;;;;;;;19.06;29.29;98937.09;5054555;28;20028;-73
2021/12/07 07:45:34;;;;;;;3.15;2.20;;;;;;;19.09;29.26;98933.22;5055124;28;20029;-72
2021/12/07 07:47:59;;;;;;;4.32;2.22;;;;;;;19.09;29.26;98920.63;5054333;28;20033;-72
2021/12/07 07:50:25;;;;;;;2.97;1.90;;;;;;;19.10;29.28;98932.22;5054353;28;20036;-72
2021/12/07 07:52:51;;;;;;;2.40;1.80;;;;;;;19.10;29.41;98932.22;5054575;28;20072;-72
2021/12/07 07:55:16;;;;;;;1.95;1.55;;;;;;;19.10;29.27;98927.66;5052541;28;20053;-72
2021/12/07 07:57:42;;;;;;;2.22;1.75;;;;;;;19.08;29.21;98929.69;5054250;28;20029;-71
2021/12/07 08:00:11;;;;;;;3.03;1.88;;;;;;;19.10;29.26;98932.22;5054299;28;20148;-71
2021/12/07 08:02:36;;;;;;;3.85;2.17;;;;;;;19.10;29.06;98922.31;5041935;28;20403;-69
2021/12/07 08:05:03;;;;;;;3.10;2.00;;;;;;;19.11;29.12;98915.09;5054719;28;20036;-70
2021/12/07 08:07:29;;;;;;;2.15;1.50;;;;;;;19.11;29.08;98926.66;5054687;28;20037;-69
2021/12/07 08:09:54;;;;;;;2.53;1.50;;;;;;;19.14;29.04;98925.44;5055032;28;20035;-71
2021/12/07 08:12:20;;;;;;;3.35;2.10;;;;;;;19.16;29.33;98926.06;5054519;28;20040;-71
2021/12/07 08:14:46;;;;;;;1.92;1.70;;;;;;;19.16;29.12;98923.38;5052976;28;20161;-71
2021/12/07 08:17:11;;;;;;;2.38;1.70;;;;;;;19.16;28.92;98915.34;5051689;28;20037;-70
2021/12/07 08:19:37;;;;;;;2.25;1.50;;;;;;;19.16;29.07;98909.97;5055001;28;20041;-70
2021/12/07 08:22:04;;;;;;;2.70;1.52;;;;;;;19.16;29.11;98900.09;5054244;28;20114;-71
2021/12/07 08:24:29;;;;;;;1.98;1.40;;;;;;;19.18;29.05;98910.63;5054361;28;20040;-72
2021/12/07 08:26:55;;;;;;;1.98;1.33;;;;;;;19.19;29.27;98909.59;5054140;28;20468;-69
2021/12/07 08:29:20;;;;;;;3.33;1.60;;;;;;;19.21;29.03;98919.09;5054600;28;20037;-69
2021/12/07 08:31:46;;;;;;;2.88;1.50;;;;;;;19.24;29.00;98907.19;5052856;28;20040;-70
2021/12/07 08:34:12;;;;;;;2.20;1.48;;;;;;;19.28;29.27;98908.44;5053973;28;20040;-69
2021/12/07 08:36:38;;;;;;;2.50;1.60;;;;;;;19.31;29.11;98896.50;5054595;28;20758;-69
2021/12/07 08:39:05;;;;;;;3.22;1.60;;;;;;;19.34;29.17;98902.31;5053418;28;20094;-68
2021/12/07 08:41:31;;;;;;;3.15;1.30;;;;;;;19.38;29.15;98891.19;5054074;28;20128;-68
2021/12/07 08:43:57;;;;;;;2.35;1.33;;;;;;;19.40;29.15;98895.34;5053784;28;20476;-69
2021/12/07 08:46:22;;;;;;;3.08;2.00;;;;;;;19.42;29.21;98893.28;5053912;28;20534;-68
2021/12/07 08:48:48;;;;;;;3.08;1.65;;;;;;;19.46;29.09;98891.88;5051693;28;20087;-68
2021/12/07 08:51:14;;;;;;;2.40;1.50;;;;;;;19.48;29.13;98894.38;5054195;28;20442;-68
2021/12/07 08:53:49;;;;;;;2.60;1.70;;;;;;;19.47;28.90;98882.81;5053841;28;20041;-69
2021/12/07 09:01:42;;;;;;;2.38;1.42;;;;;;;19.53;29.14;98867.78;5053143;28;20115;-69
2021/12/07 09:04:10;;;;;;;1.85;1.40;;;;;;;19.56;29.11;98864.69;5045799;28;20033;-69
2021/12/07 09:06:37;;;;;;;1.67;1.10;;;;;;;19.60;29.12;98883.94;5052752;28;20110;-70
2021/12/07 09:09:04;;;;;;;2.60;1.60;;;;;;;19.61;29.11;98878.34;5051150;28;20033;-71
2021/12/07 09:11:29;;;;;;;2.30;1.45;;;;;;;19.66;28.90;98875.94;5052561;28;20059;-70
2021/12/07 09:13:55;;;;;;;2.30;1.40;;;;;;;19.66;28.98;98867.88;5052588;28;20495;-70
2021/12/07 09:16:22;;;;;;;3.22;1.30;;;;;;;19.68;28.96;98873.03;5052659;28;20063;-69
2021/12/07 09:18:48;;;;;;;3.80;1.33;;;;;;;19.71;28.88;98869.13;5052507;28;20072;-69
2021/12/07 09:21:16;;;;;;;4.88;1.20;;;;;;;19.73;28.85;98862.53;5052438;28;20448;-69
2021/12/07 09:23:41;;;;;;;1.35;1.20;;;;;;;19.73;29.05;98851.81;5050995;28;20079;-69
2021/12/07 09:26:08;;;;;;;1.85;1.25;;;;;;;19.72;29.18;98850.16;5052120;28;20068;-70
2021/12/07 09:28:33;;;;;;;2.15;1.33;;;;;;;19.73;29.25;98849.13;5051987;28;20039;-70
2021/12/07 09:31:00;;;;;;;3.05;1.73;;;;;;;19.73;29.00;98848.28;5052626;28;20124;-70
2021/12/07 09:33:27;;;;;;;2.05;1.38;;;;;;;19.72;28.99;98850.16;5045713;28;20112;-70
2021/12/07 09:35:54;;;;;;;2.33;1.50;;;;;;;19.71;29.12;98842.28;5052246;28;20101;-69
2021/12/07 09:38:21;;;;;;;1.50;1.20;;;;;;;19.71;29.06;98848.50;5051060;28;20032;-70
2021/12/07 09:40:48;;;;;;;3.88;1.45;;;;;;;19.67;29.06;98840.00;5050864;28;20041;-70
2021/12/07 09:43:14;;;;;;;3.08;1.52;;;;;;;19.66;29.07;98849.09;5051501;28;20510;-71
2021/12/07 09:45:42;;;;;;;5.43;1.48;;;;;;;19.66;29.72;98851.78;5050574;28;20404;-69
2021/12/07 09:48:10;;;;;;;4.63;1.60;;;;;;;19.26;29.88;98848.81;5051425;28;20037;-69
2021/12/07 09:50:38;;;;;;;7.78;3.15;;;;;;;18.66;30.72;98837.50;5051432;28;20043;-67
2021/12/07 09:53:07;;;;;;;3.60;1.80;;;;;;;18.16;31.41;98838.19;5051135;28;20043;-67
2021/12/07 09:55:33;;;;;;;4.20;1.95;;;;;;;17.79;32.52;98839.97;5051015;28;20475;-66
2021/12/07 09:57:59;;;;;;;3.35;1.70;;;;;;;17.84;33.49;98838.38;5050572;28;20047;-66
2021/12/07 10:00:26;;;;;;;2.60;1.45;;;;;;;18.18;33.25;98838.00;5047714;28;20040;-68
2021/12/07 10:02:53;;;;;;;4.80;1.88;;;;;;;18.45;33.13;98834.63;5051058;28;20082;-65
2021/12/07 10:05:19;;;;;;;3.47;1.60;;;;;;;18.65;33.05;98834.00;5051771;28;20032;-67
2021/12/07 10:07:47;;;;;;;3.58;1.60;;;;;;;18.79;32.85;98831.47;5051440;28;20051;-67
2021/12/07 10:10:41;;;;;;;4.20;1.95;;;;;;;18.90;32.74;98837.13;5050734;28;20086;-65
2021/12/07 10:13:09;;;;;;;2.90;1.63;;;;;;;18.98;32.71;98832.69;5050924;28;20032;-66
2021/12/07 10:15:36;;;;;;;4.63;2.30;;;;;;;19.04;32.62;98826.56;5050129;28;20032;-64
2021/12/07 10:18:04;;;;;;;4.65;1.63;;;;;;;19.10;32.62;98836.50;5050352;28;20032;-67
2021/12/07 10:20:42;;;;;;;7.47;2.28;;;;;;;19.17;32.82;98831.19;5050675;28;20028;-67
2021/12/07 10:23:13;;;;;;;5.55;1.75;;;;;;;19.21;32.54;98824.41;5050687;28;20526;-67
2021/12/07 10:25:44;;;;;;;3.10;1.80;;;;;;;19.30;32.44;98819.75;5050624;28;20117;-68
2021/12/07 10:28:43;;;;;;;5.00;2.10;;;;;;;19.41;32.73;98824.56;5050001;28;20028;-63
2021/12/07 10:31:09;;;;;;;3.42;1.63;;;;;;;19.45;32.46;98838.41;5050628;28;20067;-63
2021/12/07 10:34:00;;;;;;;3.20;1.77;;;;;;;19.45;32.85;98830.34;5050233;28;20048;-66
2021/12/07 10:36:30;;;;;;;3.38;1.40;;;;;;;19.43;32.95;98821.66;5051177;28;20072;-69
2021/12/07 10:39:25;;;;;;;5.15;1.40;;;;;;;19.40;33.06;98830.94;5053424;28;20040;-70
2021/12/07 10:42:00;;;;;;;4.40;1.80;;;;;;;19.39;33.07;98826.59;5052571;28;20049;-69
2021/12/07 10:44:31;;;;;;;4.20;1.83;;;;;;;19.39;32.81;98831.97;5055865;28;20037;-70
2021/12/07 10:47:08;;;;;;;3.33;1.70;;;;;;;19.39;32.82;98841.88;5055108;28;20407;-68
2021/12/07 10:49:35;;;;;;;2.83;1.40;;;;;;;19.36;32.81;98835.88;5055890;28;20115;-68
2021/12/07 10:52:33;;;;;;;5.57;1.42;;;;;;;19.38;32.92;98837.53;5052987;28;20090;-70
2021/12/07 10:55:08;;;;;;;6.25;1.60;;;;;;;19.35;32.83;98822.66;5056161;28;20057;-68
2021/12/07 10:57:42;;;;;;;2.83;1.30;;;;;;;19.36;33.00;98814.44;5056070;28;20437;-69
2021/12/07 11:00:16;;;;;;;4.28;2.25;;;;;;;19.35;32.71;98820.81;5055657;28;20040;-69
2021/12/07 11:02:47;;;;;;;3.35;1.48;;;;;;;19.35;32.73;98828.00;5054510;28;20499;-69
2021/12/07 11:05:27;;;;;;;3.00;1.50;;;;;;;19.35;32.75;98818.13;5055829;28;20132;-69
2021/12/07 11:07:53;;;;;;;2.08;1.35;;;;;;;19.35;32.53;98822.66;5054503;28;20045;-70
2021/12/07 11:10:31;;;;;;;2.55;1.70;;;;;;;19.38;32.57;98830.31;5055142;28;20043;-70
2021/12/07 11:13:07;;;;;;;2.97;1.33;;;;;;;19.36;32.34;98819.78;5054718;28;20048;-68
2021/12/07 11:15:37;;;;;;;4.38;1.75;;;;;;;19.38;32.47;98821.44;5056279;28;20045;-68
2021/12/07 11:18:08;;;;;;;2.38;1.40;;;;;;;19.36;32.55;98819.78;5054789;28;20107;-69
2021/12/07 11:20:35;;;;;;;2.63;1.75;;;;;;;19.33;32.53;98804.09;5054467;28;20039;-68
2021/12/07 11:23:08;;;;;;;5.07;1.50;;;;;;;19.33;32.57;98817.50;5052436;28;20037;-68
2021/12/07 11:31:34;;;;;;;12.68;1.88;;;;;;;19.29;32.44;98800.13;5055304;28;20087;-67
2021/12/07 11:34:27;;;;;;;6.97;1.60;;;;;;;19.30;32.32;98809.84;5048089;28;20041;-69
2021/12/07 11:37:03;;;;;;;2.80;1.60;;;;;;;19.31;32.41;98810.69;5052320;28;20041;-69
2021/12/07 11:39:31;;;;;;;2.10;1.20;;;;;;;19.33;32.49;98811.31;5054119;28;20480;-69
2021/12/07 11:42:05;;;;;;;3.38;1.38;;;;;;;19.33;32.56;98808.63;5054615;28;20036;-70
2021/12/07 11:44:33;;;;;;;6.03;1.60;;;;;;;19.34;32.54;98818.31;5055187;28;20045;-69
2021/12/07 11:47:00;;;;;;;3.15;1.42;;;;;;;19.36;32.48;98810.91;5055298;28;20036;-70
2021/12/07 11:49:29;;;;;;;2.50;1.30;;;;;;;19.36;32.49;98818.94;5054723;28;20055;-69
2021/12/07 11:51:57;;;;;;;3.83;1.45;;;;;;;19.34;32.41;98815.63;5054438;28;20545;-69
2021/12/07 11:54:29;;;;;;;4.45;1.50;;;;;;;19.34;32.23;98810.25;5051021;28;20132;-70
2021/12/07 11:56:55;;;;;;;3.55;1.80;;;;;;;19.34;32.36;98810.25;5054746;28;20032;-70
2021/12/07 11:59:21;;;;;;;3.28;1.73;;;;;;;19.33;32.16;98828.22;5054070;28;20045;-70
2021/12/07 12:01:48;;;;;;;1.70;1.17;;;;;;;19.32;32.13;98810.47;5054020;28;20047;-69
2021/12/07 12:04:15;;;;;;;3.65;1.55;;;;;;;19.35;32.15;98801.19;5054441;28;20060;-69
2021/12/07 12:06:43;;;;;;;4.15;1.20;;;;;;;19.34;32.26;98826.34;5051320;28;20401;-70
2021/12/07 12:09:09;;;;;;;2.05;1.30;;;;;;;19.31;32.27;98818.72;5052512;28;20514;-71
2021/12/07 12:11:41;;;;;;;1.92;1.17;;;;;;;19.30;32.28;98820.56;5052723;28;20041;-72
2021/12/07 12:14:12;;;;;;;2.20;1.40;;;;;;;19.32;32.13;98826.56;5054256;28;20075;-70
2021/12/07 12:17:15;;;;;;;2.13;1.38;;;;;;;19.30;32.25;98833.16;5053633;28;20033;-70
2021/12/07 12:19:59;;;;;;;3.05;1.30;;;;;;;19.30;31.88;98836.66;5052740;28;20044;-70
2021/12/07 12:22:42;;;;;;;2.60;1.40;;;;;;;19.33;31.94;98841.63;5053311;28;20114;-69
2021/12/07 12:25:12;;;;;;;3.30;1.30;;;;;;;19.39;32.04;98829.28;5053725;28;20067;-68
2021/12/07 12:27:38;;;;;;;3.60;1.17;;;;;;;19.40;32.41;98824.78;5053048;28;20037;-69
2021/12/07 12:30:16;;;;;;;2.08;1.52;;;;;;;19.41;32.28;98826.44;5053437;28;20120;-75
2021/12/07 12:32:44;;;;;;;8.30;1.50;;;;;;;19.44;32.68;98848.31;5052539;28;20040;-71
2021/12/07 12:35:11;;;;;;;5.38;1.40;;;;;;;19.45;33.04;98857.19;5054325;28;20037;-66
2021/12/07 12:37:38;;;;;;;3.63;1.42;;;;;;;19.17;32.70;98855.31;5053914;28;20090;-70
2021/12/07 12:40:10;;;;;;;4.25;1.80;;;;;;;18.63;32.99;98853.97;5050207;28;20037;-69
2021/12/07 12:42:38;;;;;;;3.25;1.83;;;;;;;18.09;33.82;98848.81;5050706;28;20561;-70
2021/12/07 12:45:42;;;;;;;4.22;1.85;;;;;;;17.62;34.13;98850.84;5052993;28;20044;-69
2021/12/07 12:48:17;;;;;;;9.57;3.85;;;;;;;17.36;34.89;98853.94;5012158;28;20065;-68
2021/12/07 12:50:42;;;;;;;14.55;4.95;;;;;;;17.16;35.46;98853.63;5049111;28;20040;-69
2021/12/07 12:53:21;;;;;;;14.93;3.97;;;;;;;17.01;35.67;98843.72;5053775;28;20036;-70
2021/12/07 12:55:51;;;;;;;13.75;5.20;;;;;;;16.89;36.60;98853.13;5053701;28;20049;-69
2021/12/07 12:58:21;;;;;;;8.68;3.90;;;;;;;16.81;36.55;98843.34;5053890;28;20120;-70
2021/12/07 13:01:14;;;;;;;6.35;3.70;;;;;;;16.70;36.89;98841.91;5052841;28;20025;-69
2021/12/07 13:03:53;;;;;;;9.65;4.15;;;;;;;16.59;37.35;98847.66;5052831;28;20063;-70
2021/12/07 13:06:25;;;;;;;8.38;3.22;;;;;;;16.53;37.35;98835.03;5053450;28;20025;-69
2021/12/07 13:08:57;;;;;;;10.15;4.15;;;;;;;16.46;37.41;98840.25;5053600;28;20032;-69
2021/12/07 13:11:34;;;;;;;8.27;3.28;;;;;;;16.40;37.39;98836.44;5053572;28;20111;-69
2021/12/07 13:14:01;;;;;;;7.22;3.28;;;;;;;16.36;37.61;98835.13;5053238;28;20395;-69
2021/12/07 13:16:27;;;;;;;6.13;3.33;;;;;;;16.29;37.91;98839.50;5052887;28;20435;-71
2021/12/07 13:19:01;;;;;;;6.60;2.33;;;;;;;16.23;37.63;98830.34;5052297;28;20037;-71
2021/12/07 13:21:28;;;;;;;5.07;2.30;;;;;;;16.19;37.79;98833.56;5053242;28;20032;-70
2021/12/07 13:24:03;;;;;;;9.65;2.80;;;;;;;16.18;37.51;98830.03;5053206;28;20029;-69
2021/12/07 13:26:37;;;;;;;4.57;2.70;;;;;;;16.17;37.93;98831.06;5053694;28;20025;-69
2021/12/07 13:29:17;;;;;;;5.93;2.15;;;;;;;16.10;37.80;98835.44;5052459;28;20032;-71
2021/12/07 13:31:46;;;;;;;3.42;2.42;;;;;;;16.07;37.80;98839.28;5052318;28;20036;-69